sensor_id;sensor_type;location;lat;lon;timestamp;P1;durP1;ratioP1;P2;durP2;ratioP2
64037;SDS011;54641;50.168;8.492;2023-04-22T00:00:04;3.60;;;2.00;;
64037;SDS011;54641;50.168;8.492;2023-04-22T00:02:41;3.70;;;2.30;;
64037;SDS011;54641;50.168;8.492;2023-04-22T00:05:14;4.10;;;2.30;;
64037;SDS011;54641;50.168;8.492;2023-04-22T00:07:49;2.90;;;2.00;;
64037;SDS011;54641;50.168;8.492;2023-04-22T00:10:22;3.70;;;2.20;;
64037;SDS011;54641;50.168;8.492;2023-04-22T00:12:56;3.50;;;2.00;;
64037;SDS011;54641;50.168;8.492;2023-04-22T00:15:31;3.30;;;2.00;;
64037;SDS011;54641;50.168;8.492;2023-04-22T00:18:05;5.30;;;2.20;;
64037;SDS011;54641;50.168;8.492;2023-04-22T00:20:44;4.00;;;2.40;;
64037;SDS011;54641;50.168;8.492;2023-04-22T00:25:49;4.40;;;2.40;;
64037;SDS011;54641;50.168;8.492;2023-04-22T00:28:23;3.70;;;2.10;;
64037;SDS011;54641;50.168;8.492;2023-04-22T00:30:55;4.50;;;2.60;;
64037;SDS011;54641;50.168;8.492;2023-04-22T00:33:31;4.40;;;2.40;;
64037;SDS011;54641;50.168;8.492;2023-04-22T00:36:05;3.60;;;2.30;;
64037;SDS011;54641;50.168;8.492;2023-04-22T00:38:40;6.90;;;2.90;;
64037;SDS011;54641;50.168;8.492;2023-04-22T00:41:17;6.90;;;3.50;;
64037;SDS011;54641;50.168;8.492;2023-04-22T00:43:50;4.60;;;2.60;;
64037;SDS011;54641;50.168;8.492;2023-04-22T00:46:22;5.60;;;2.80;;
64037;SDS011;54641;50.168;8.492;2023-04-22T00:48:56;4.20;;;2.50;;
64037;SDS011;54641;50.168;8.492;2023-04-22T00:51:29;4.50;;;2.70;;
64037;SDS011;54641;50.168;8.492;2023-04-22T00:54:05;8.00;;;3.40;;
64037;SDS011;54641;50.168;8.492;2023-04-22T00:56:37;5.50;;;2.70;;
64037;SDS011;54641;50.168;8.492;2023-04-22T00:59:10;3.80;;;2.70;;
64037;SDS011;54641;50.168;8.492;2023-04-22T01:04:17;6.90;;;2.90;;
64037;SDS011;54641;50.168;8.492;2023-04-22T01:06:50;4.20;;;2.30;;
64037;SDS011;54641;50.168;8.492;2023-04-22T01:09:23;4.40;;;2.90;;
64037;SDS011;54641;50.168;8.492;2023-04-22T01:11:57;7.10;;;3.10;;
64037;SDS011;54641;50.168;8.492;2023-04-22T01:14:32;4.40;;;2.80;;
64037;SDS011;54641;50.168;8.492;2023-04-22T01:17:05;4.20;;;2.40;;
64037;SDS011;54641;50.168;8.492;2023-04-22T01:19:40;4.40;;;2.50;;
64037;SDS011;54641;50.168;8.492;2023-04-22T01:22:15;4.30;;;3.00;;
64037;SDS011;54641;50.168;8.492;2023-04-22T01:24:49;4.50;;;2.60;;
64037;SDS011;54641;50.168;8.492;2023-04-22T01:27:20;4.00;;;2.40;;
64037;SDS011;54641;50.168;8.492;2023-04-22T01:32:23;5.80;;;2.30;;
64037;SDS011;54641;50.168;8.492;2023-04-22T01:34:58;4.30;;;2.60;;
64037;SDS011;54641;50.168;8.492;2023-04-22T01:37:35;4.70;;;2.40;;
64037;SDS011;54641;50.168;8.492;2023-04-22T01:40:08;4.10;;;2.70;;
64037;SDS011;54641;50.168;8.492;2023-04-22T01:42:42;4.70;;;2.50;;
64037;SDS011;54641;50.168;8.492;2023-04-22T01:45:16;3.40;;;2.00;;
64037;SDS011;54641;50.168;8.492;2023-04-22T01:47:48;3.90;;;2.00;;
64037;SDS011;54641;50.168;8.492;2023-04-22T01:50:22;3.80;;;2.40;;
64037;SDS011;54641;50.168;8.492;2023-04-22T01:52:55;3.60;;;2.30;;
64037;SDS011;54641;50.168;8.492;2023-04-22T01:57:59;4.30;;;2.60;;
64037;SDS011;54641;50.168;8.492;2023-04-22T02:00:32;3.70;;;2.20;;
64037;SDS011;54641;50.168;8.492;2023-04-22T02:03:09;2.80;;;2.10;;
64037;SDS011;54641;50.168;8.492;2023-04-22T02:05:42;3.30;;;2.10;;
64037;SDS011;54641;50.168;8.492;2023-04-22T02:08:15;4.60;;;2.20;;
64037;SDS011;54641;50.168;8.492;2023-04-22T02:10:51;3.50;;;1.60;;
64037;SDS011;54641;50.168;8.492;2023-04-22T02:13:24;3.50;;;1.90;;
64037;SDS011;54641;50.168;8.492;2023-04-22T02:15:57;4.00;;;2.00;;
64037;SDS011;54641;50.168;8.492;2023-04-22T02:18:30;4.90;;;2.10;;
64037;SDS011;54641;50.168;8.492;2023-04-22T02:21:03;3.30;;;2.00;;
64037;SDS011;54641;50.168;8.492;2023-04-22T02:23:36;3.80;;;2.10;;
64037;SDS011;54641;50.168;8.492;2023-04-22T02:26:10;4.60;;;2.30;;
64037;SDS011;54641;50.168;8.492;2023-04-22T02:28:43;4.60;;;2.10;;
64037;SDS011;54641;50.168;8.492;2023-04-22T02:33:47;4.30;;;1.90;;
64037;SDS011;54641;50.168;8.492;2023-04-22T02:36:19;3.30;;;2.00;;
64037;SDS011;54641;50.168;8.492;2023-04-22T02:38:54;4.80;;;2.10;;
64037;SDS011;54641;50.168;8.492;2023-04-22T02:41:27;5.40;;;1.90;;
64037;SDS011;54641;50.168;8.492;2023-04-22T02:44:00;4.50;;;1.90;;
64037;SDS011;54641;50.168;8.492;2023-04-22T02:46:34;4.70;;;2.20;;
64037;SDS011;54641;50.168;8.492;2023-04-22T02:49:06;3.40;;;2.00;;
64037;SDS011;54641;50.168;8.492;2023-04-22T02:51:41;4.00;;;1.60;;
64037;SDS011;54641;50.168;8.492;2023-04-22T02:54:14;2.80;;;1.80;;
64037;SDS011;54641;50.168;8.492;2023-04-22T02:56:46;2.70;;;1.90;;
64037;SDS011;54641;50.168;8.492;2023-04-22T02:59:19;2.30;;;1.70;;
64037;SDS011;54641;50.168;8.492;2023-04-22T03:01:51;3.30;;;1.80;;
64037;SDS011;54641;50.168;8.492;2023-04-22T03:04:36;3.30;;;1.70;;
64037;SDS011;54641;50.168;8.492;2023-04-22T03:07:11;4.40;;;2.70;;
64037;SDS011;54641;50.168;8.492;2023-04-22T03:09:43;3.80;;;2.30;;
64037;SDS011;54641;50.168;8.492;2023-04-22T03:12:16;5.20;;;2.40;;
64037;SDS011;54641;50.168;8.492;2023-04-22T03:14:55;3.10;;;2.00;;
64037;SDS011;54641;50.168;8.492;2023-04-22T03:17:30;4.30;;;2.40;;
64037;SDS011;54641;50.168;8.492;2023-04-22T03:20:05;3.10;;;2.00;;
64037;SDS011;54641;50.168;8.492;2023-04-22T03:22:39;3.70;;;2.30;;
64037;SDS011;54641;50.168;8.492;2023-04-22T03:25:13;4.00;;;2.50;;
64037;SDS011;54641;50.168;8.492;2023-04-22T03:27:50;4.30;;;2.60;;
64037;SDS011;54641;50.168;8.492;2023-04-22T03:30:25;5.50;;;3.00;;
64037;SDS011;54641;50.168;8.492;2023-04-22T03:32:59;4.50;;;2.50;;
64037;SDS011;54641;50.168;8.492;2023-04-22T03:35:51;5.70;;;3.00;;
64037;SDS011;54641;50.168;8.492;2023-04-22T03:38:25;5.50;;;2.60;;
64037;SDS011;54641;50.168;8.492;2023-04-22T03:41:03;4.80;;;2.80;;
64037;SDS011;54641;50.168;8.492;2023-04-22T03:43:45;5.20;;;3.40;;
64037;SDS011;54641;50.168;8.492;2023-04-22T03:46:20;4.10;;;2.60;;
64037;SDS011;54641;50.168;8.492;2023-04-22T03:49:00;5.10;;;2.50;;
64037;SDS011;54641;50.168;8.492;2023-04-22T03:51:34;3.80;;;2.30;;
64037;SDS011;54641;50.168;8.492;2023-04-22T03:54:11;4.60;;;2.30;;
64037;SDS011;54641;50.168;8.492;2023-04-22T03:56:48;4.90;;;2.50;;
64037;SDS011;54641;50.168;8.492;2023-04-22T03:59:22;3.60;;;2.40;;
64037;SDS011;54641;50.168;8.492;2023-04-22T04:01:57;4.20;;;2.70;;
64037;SDS011;54641;50.168;8.492;2023-04-22T04:04:32;4.70;;;2.90;;
64037;SDS011;54641;50.168;8.492;2023-04-22T04:07:07;4.40;;;2.40;;
64037;SDS011;54641;50.168;8.492;2023-04-22T04:09:41;3.30;;;2.20;;
64037;SDS011;54641;50.168;8.492;2023-04-22T04:12:15;3.90;;;2.80;;
64037;SDS011;54641;50.168;8.492;2023-04-22T04:14:49;4.90;;;2.70;;
64037;SDS011;54641;50.168;8.492;2023-04-22T04:17:22;4.10;;;2.40;;
64037;SDS011;54641;50.168;8.492;2023-04-22T04:19:59;4.10;;;2.20;;
64037;SDS011;54641;50.168;8.492;2023-04-22T04:22:35;3.90;;;2.20;;
64037;SDS011;54641;50.168;8.492;2023-04-22T04:25:11;4.50;;;2.20;;
64037;SDS011;54641;50.168;8.492;2023-04-22T04:27:46;3.50;;;2.20;;
64037;SDS011;54641;50.168;8.492;2023-04-22T04:30:20;5.30;;;2.70;;
64037;SDS011;54641;50.168;8.492;2023-04-22T04:32:55;5.00;;;2.50;;
64037;SDS011;54641;50.168;8.492;2023-04-22T04:35:37;3.20;;;2.20;;
64037;SDS011;54641;50.168;8.492;2023-04-22T04:38:15;4.00;;;2.40;;
64037;SDS011;54641;50.168;8.492;2023-04-22T04:40:49;4.20;;;2.30;;
64037;SDS011;54641;50.168;8.492;2023-04-22T04:43:25;3.60;;;2.50;;
64037;SDS011;54641;50.168;8.492;2023-04-22T04:46:18;4.60;;;2.80;;
64037;SDS011;54641;50.168;8.492;2023-04-22T04:48:54;7.60;;;3.00;;
64037;SDS011;54641;50.168;8.492;2023-04-22T04:51:35;5.10;;;2.90;;
64037;SDS011;54641;50.168;8.492;2023-04-22T04:54:11;4.80;;;3.00;;
64037;SDS011;54641;50.168;8.492;2023-04-22T04:56:53;5.00;;;2.50;;
64037;SDS011;54641;50.168;8.492;2023-04-22T04:59:28;3.70;;;2.50;;
64037;SDS011;54641;50.168;8.492;2023-04-22T05:02:06;4.20;;;2.80;;
64037;SDS011;54641;50.168;8.492;2023-04-22T05:04:43;4.10;;;2.60;;
64037;SDS011;54641;50.168;8.492;2023-04-22T05:07:19;7.10;;;3.60;;
64037;SDS011;54641;50.168;8.492;2023-04-22T05:09:54;22.90;;;8.70;;
64037;SDS011;54641;50.168;8.492;2023-04-22T05:12:30;6.00;;;2.90;;
64037;SDS011;54641;50.168;8.492;2023-04-22T05:15:09;4.30;;;2.80;;
64037;SDS011;54641;50.168;8.492;2023-04-22T05:17:44;4.60;;;2.50;;
64037;SDS011;54641;50.168;8.492;2023-04-22T05:20:20;4.70;;;2.70;;
64037;SDS011;54641;50.168;8.492;2023-04-22T05:23:00;5.70;;;2.40;;
64037;SDS011;54641;50.168;8.492;2023-04-22T05:25:34;7.00;;;3.00;;
64037;SDS011;54641;50.168;8.492;2023-04-22T05:28:10;3.80;;;2.50;;
64037;SDS011;54641;50.168;8.492;2023-04-22T05:30:51;4.60;;;3.10;;
64037;SDS011;54641;50.168;8.492;2023-04-22T05:33:27;4.70;;;2.80;;
64037;SDS011;54641;50.168;8.492;2023-04-22T05:36:01;4.70;;;2.90;;
64037;SDS011;54641;50.168;8.492;2023-04-22T05:38:35;5.90;;;4.00;;
64037;SDS011;54641;50.168;8.492;2023-04-22T05:41:15;4.90;;;2.90;;
64037;SDS011;54641;50.168;8.492;2023-04-22T05:43:52;4.40;;;2.70;;
64037;SDS011;54641;50.168;8.492;2023-04-22T05:46:30;4.20;;;2.90;;
64037;SDS011;54641;50.168;8.492;2023-04-22T05:49:05;4.30;;;2.90;;
64037;SDS011;54641;50.168;8.492;2023-04-22T05:52:00;4.50;;;3.00;;
64037;SDS011;54641;50.168;8.492;2023-04-22T05:54:44;3.40;;;2.30;;
64037;SDS011;54641;50.168;8.492;2023-04-22T05:57:18;6.00;;;2.70;;
64037;SDS011;54641;50.168;8.492;2023-04-22T05:59:53;4.50;;;3.00;;
64037;SDS011;54641;50.168;8.492;2023-04-22T06:02:32;3.60;;;2.80;;
64037;SDS011;54641;50.168;8.492;2023-04-22T06:05:10;5.00;;;2.70;;
64037;SDS011;54641;50.168;8.492;2023-04-22T06:07:46;4.50;;;2.90;;
64037;SDS011;54641;50.168;8.492;2023-04-22T06:10:22;4.10;;;3.00;;
64037;SDS011;54641;50.168;8.492;2023-04-22T06:12:59;4.30;;;3.20;;
64037;SDS011;54641;50.168;8.492;2023-04-22T06:15:34;5.30;;;3.50;;
64037;SDS011;54641;50.168;8.492;2023-04-22T06:18:11;6.60;;;3.40;;
64037;SDS011;54641;50.168;8.492;2023-04-22T06:20:47;4.90;;;3.50;;
64037;SDS011;54641;50.168;8.492;2023-04-22T06:23:22;4.50;;;3.00;;
64037;SDS011;54641;50.168;8.492;2023-04-22T06:25:57;5.60;;;3.10;;
64037;SDS011;54641;50.168;8.492;2023-04-22T06:28:33;4.30;;;2.80;;
64037;SDS011;54641;50.168;8.492;2023-04-22T06:31:15;4.60;;;2.90;;
64037;SDS011;54641;50.168;8.492;2023-04-22T06:33:49;5.40;;;3.40;;
64037;SDS011;54641;50.168;8.492;2023-04-22T06:36:23;4.30;;;2.80;;
64037;SDS011;54641;50.168;8.492;2023-04-22T06:39:01;8.40;;;4.60;;
64037;SDS011;54641;50.168;8.492;2023-04-22T06:42:06;6.90;;;4.30;;
64037;SDS011;54641;50.168;8.492;2023-04-22T06:45:06;6.20;;;3.80;;
64037;SDS011;54641;50.168;8.492;2023-04-22T06:48:07;4.70;;;3.20;;
64037;SDS011;54641;50.168;8.492;2023-04-22T06:50:56;3.80;;;2.90;;
64037;SDS011;54641;50.168;8.492;2023-04-22T06:53:30;3.70;;;3.10;;
64037;SDS011;54641;50.168;8.492;2023-04-22T06:56:05;3.70;;;2.20;;
64037;SDS011;54641;50.168;8.492;2023-04-22T06:58:39;3.90;;;2.80;;
64037;SDS011;54641;50.168;8.492;2023-04-22T07:01:13;4.20;;;3.10;;
64037;SDS011;54641;50.168;8.492;2023-04-22T07:03:47;4.60;;;2.90;;
64037;SDS011;54641;50.168;8.492;2023-04-22T07:06:21;6.20;;;3.10;;
64037;SDS011;54641;50.168;8.492;2023-04-22T07:08:56;4.60;;;2.90;;
64037;SDS011;54641;50.168;8.492;2023-04-22T07:11:29;3.60;;;2.90;;
64037;SDS011;54641;50.168;8.492;2023-04-22T07:14:10;5.00;;;3.10;;
64037;SDS011;54641;50.168;8.492;2023-04-22T07:16:43;6.70;;;3.70;;
64037;SDS011;54641;50.168;8.492;2023-04-22T07:19:16;6.70;;;3.80;;
64037;SDS011;54641;50.168;8.492;2023-04-22T07:24:22;5.80;;;3.90;;
64037;SDS011;54641;50.168;8.492;2023-04-22T07:26:54;6.30;;;4.30;;
64037;SDS011;54641;50.168;8.492;2023-04-22T07:29:27;4.50;;;3.20;;
64037;SDS011;54641;50.168;8.492;2023-04-22T07:32:00;7.10;;;4.60;;
64037;SDS011;54641;50.168;8.492;2023-04-22T07:34:35;4.40;;;3.40;;
64037;SDS011;54641;50.168;8.492;2023-04-22T07:37:07;6.00;;;4.00;;
64037;SDS011;54641;50.168;8.492;2023-04-22T07:39:39;4.30;;;3.40;;
64037;SDS011;54641;50.168;8.492;2023-04-22T07:42:12;4.10;;;2.90;;
64037;SDS011;54641;50.168;8.492;2023-04-22T07:44:46;6.60;;;3.20;;
64037;SDS011;54641;50.168;8.492;2023-04-22T07:47:20;3.60;;;3.10;;
64037;SDS011;54641;50.168;8.492;2023-04-22T07:49:53;6.10;;;3.60;;
64037;SDS011;54641;50.168;8.492;2023-04-22T07:52:27;4.60;;;3.50;;
64037;SDS011;54641;50.168;8.492;2023-04-22T07:55:00;5.60;;;3.50;;
64037;SDS011;54641;50.168;8.492;2023-04-22T07:57:35;7.20;;;3.90;;
64037;SDS011;54641;50.168;8.492;2023-04-22T08:00:09;4.30;;;3.20;;
64037;SDS011;54641;50.168;8.492;2023-04-22T08:02:46;5.10;;;4.00;;
64037;SDS011;54641;50.168;8.492;2023-04-22T08:05:18;5.20;;;3.90;;
64037;SDS011;54641;50.168;8.492;2023-04-22T08:07:51;4.70;;;3.20;;
64037;SDS011;54641;50.168;8.492;2023-04-22T08:10:24;6.50;;;4.00;;
64037;SDS011;54641;50.168;8.492;2023-04-22T08:12:57;5.10;;;4.30;;
64037;SDS011;54641;50.168;8.492;2023-04-22T08:15:31;5.10;;;3.80;;
64037;SDS011;54641;50.168;8.492;2023-04-22T08:18:07;6.70;;;4.90;;
64037;SDS011;54641;50.168;8.492;2023-04-22T08:20:41;21.90;;;15.90;;
64037;SDS011;54641;50.168;8.492;2023-04-22T08:23:16;17.70;;;14.70;;
64037;SDS011;54641;50.168;8.492;2023-04-22T08:25:49;36.00;;;28.70;;
64037;SDS011;54641;50.168;8.492;2023-04-22T08:28:22;15.50;;;12.40;;
64037;SDS011;54641;50.168;8.492;2023-04-22T08:30:53;7.70;;;4.40;;
64037;SDS011;54641;50.168;8.492;2023-04-22T08:33:26;9.10;;;6.30;;
64037;SDS011;54641;50.168;8.492;2023-04-22T08:36:00;16.30;;;12.10;;
64037;SDS011;54641;50.168;8.492;2023-04-22T08:38:36;14.90;;;11.40;;
64037;SDS011;54641;50.168;8.492;2023-04-22T08:41:09;13.80;;;10.60;;
64037;SDS011;54641;50.168;8.492;2023-04-22T08:43:43;6.30;;;5.00;;
64037;SDS011;54641;50.168;8.492;2023-04-22T08:46:17;5.00;;;3.80;;
64037;SDS011;54641;50.168;8.492;2023-04-22T08:48:53;7.10;;;3.60;;
64037;SDS011;54641;50.168;8.492;2023-04-22T08:51:29;5.80;;;4.00;;
64037;SDS011;54641;50.168;8.492;2023-04-22T08:54:03;6.20;;;3.50;;
64037;SDS011;54641;50.168;8.492;2023-04-22T08:56:35;7.10;;;5.20;;
64037;SDS011;54641;50.168;8.492;2023-04-22T08:59:10;5.40;;;4.10;;
64037;SDS011;54641;50.168;8.492;2023-04-22T09:01:42;6.00;;;4.60;;
64037;SDS011;54641;50.168;8.492;2023-04-22T09:04:15;6.20;;;4.60;;
64037;SDS011;54641;50.168;8.492;2023-04-22T09:06:50;6.10;;;4.50;;
64037;SDS011;54641;50.168;8.492;2023-04-22T09:09:23;7.80;;;5.00;;
64037;SDS011;54641;50.168;8.492;2023-04-22T09:11:56;6.20;;;4.70;;
64037;SDS011;54641;50.168;8.492;2023-04-22T09:14:30;7.20;;;4.70;;
64037;SDS011;54641;50.168;8.492;2023-04-22T09:17:06;6.40;;;4.90;;
64037;SDS011;54641;50.168;8.492;2023-04-22T09:19:39;6.60;;;4.80;;
64037;SDS011;54641;50.168;8.492;2023-04-22T09:22:12;5.50;;;4.80;;
64037;SDS011;54641;50.168;8.492;2023-04-22T09:27:16;7.80;;;5.60;;
64037;SDS011;54641;50.168;8.492;2023-04-22T09:29:49;5.90;;;5.10;;
64037;SDS011;54641;50.168;8.492;2023-04-22T09:32:23;8.40;;;5.10;;
64037;SDS011;54641;50.168;8.492;2023-04-22T09:34:58;8.50;;;5.90;;
64037;SDS011;54641;50.168;8.492;2023-04-22T09:37:30;8.80;;;5.30;;
64037;SDS011;54641;50.168;8.492;2023-04-22T09:40:16;7.90;;;5.50;;
64037;SDS011;54641;50.168;8.492;2023-04-22T09:42:49;8.50;;;6.00;;
64037;SDS011;54641;50.168;8.492;2023-04-22T09:45:27;6.70;;;4.60;;
64037;SDS011;54641;50.168;8.492;2023-04-22T09:48:01;17.90;;;7.80;;
64037;SDS011;54641;50.168;8.492;2023-04-22T09:50:37;9.30;;;4.80;;
64037;SDS011;54641;50.168;8.492;2023-04-22T09:53:12;7.80;;;6.00;;
64037;SDS011;54641;50.168;8.492;2023-04-22T09:55:48;7.70;;;5.50;;
64037;SDS011;54641;50.168;8.492;2023-04-22T09:58:27;6.20;;;5.50;;
64037;SDS011;54641;50.168;8.492;2023-04-22T10:01:01;8.10;;;5.90;;
64037;SDS011;54641;50.168;8.492;2023-04-22T10:03:33;6.40;;;5.10;;
64037;SDS011;54641;50.168;8.492;2023-04-22T10:06:06;5.20;;;4.10;;
64037;SDS011;54641;50.168;8.492;2023-04-22T10:08:42;6.10;;;4.80;;
64037;SDS011;54641;50.168;8.492;2023-04-22T10:11:16;25.90;;;8.60;;
64037;SDS011;54641;50.168;8.492;2023-04-22T10:13:49;7.00;;;5.40;;
64037;SDS011;54641;50.168;8.492;2023-04-22T10:16:24;6.40;;;5.50;;
64037;SDS011;54641;50.168;8.492;2023-04-22T10:18:58;8.10;;;5.40;;
64037;SDS011;54641;50.168;8.492;2023-04-22T10:21:33;7.70;;;5.90;;
64037;SDS011;54641;50.168;8.492;2023-04-22T10:24:06;7.30;;;6.00;;
64037;SDS011;54641;50.168;8.492;2023-04-22T10:26:40;5.90;;;5.20;;
64037;SDS011;54641;50.168;8.492;2023-04-22T10:29:25;7.50;;;6.40;;
64037;SDS011;54641;50.168;8.492;2023-04-22T10:37:44;5.70;;;4.70;;
64037;SDS011;54641;50.168;8.492;2023-04-22T10:40:18;5.90;;;4.50;;
64037;SDS011;54641;50.168;8.492;2023-04-22T10:42:57;14.80;;;6.30;;
64037;SDS011;54641;50.168;8.492;2023-04-22T10:45:33;7.00;;;4.60;;
64037;SDS011;54641;50.168;8.492;2023-04-22T10:48:10;5.50;;;4.10;;
64037;SDS011;54641;50.168;8.492;2023-04-22T10:50:47;6.60;;;4.60;;
64037;SDS011;54641;50.168;8.492;2023-04-22T10:53:36;6.00;;;5.30;;
64037;SDS011;54641;50.168;8.492;2023-04-22T10:56:23;6.90;;;4.50;;
64037;SDS011;54641;50.168;8.492;2023-04-22T10:59:16;4.60;;;3.80;;
64037;SDS011;54641;50.168;8.492;2023-04-22T11:02:04;5.00;;;3.60;;
64037;SDS011;54641;50.168;8.492;2023-04-22T11:08:28;4.70;;;4.10;;
64037;SDS011;54641;50.168;8.492;2023-04-22T11:11:09;5.80;;;4.30;;
64037;SDS011;54641;50.168;8.492;2023-04-22T11:16:46;5.50;;;4.50;;
64037;SDS011;54641;50.168;8.492;2023-04-22T11:19:29;5.80;;;4.30;;
64037;SDS011;54641;50.168;8.492;2023-04-22T11:22:05;6.00;;;4.90;;
64037;SDS011;54641;50.168;8.492;2023-04-22T11:24:56;7.70;;;4.50;;
64037;SDS011;54641;50.168;8.492;2023-04-22T11:27:29;7.10;;;4.80;;
64037;SDS011;54641;50.168;8.492;2023-04-22T11:30:02;5.90;;;4.20;;
64037;SDS011;54641;50.168;8.492;2023-04-22T11:32:40;4.80;;;3.80;;
64037;SDS011;54641;50.168;8.492;2023-04-22T11:35:30;6.80;;;4.30;;
64037;SDS011;54641;50.168;8.492;2023-04-22T11:38:12;5.30;;;3.90;;
64037;SDS011;54641;50.168;8.492;2023-04-22T11:44:40;4.70;;;3.70;;
64037;SDS011;54641;50.168;8.492;2023-04-22T11:47:20;6.90;;;3.50;;
64037;SDS011;54641;50.168;8.492;2023-04-22T11:49:56;5.10;;;3.70;;
64037;SDS011;54641;50.168;8.492;2023-04-22T11:52:42;5.10;;;3.70;;
64037;SDS011;54641;50.168;8.492;2023-04-22T11:55:18;4.70;;;3.70;;
64037;SDS011;54641;50.168;8.492;2023-04-22T11:57:55;5.50;;;3.10;;
64037;SDS011;54641;50.168;8.492;2023-04-22T12:00:31;4.30;;;2.50;;
64037;SDS011;54641;50.168;8.492;2023-04-22T12:03:13;5.80;;;3.00;;
64037;SDS011;54641;50.168;8.492;2023-04-22T12:05:50;5.70;;;2.90;;
64037;SDS011;54641;50.168;8.492;2023-04-22T12:08:25;3.90;;;2.90;;
64037;SDS011;54641;50.168;8.492;2023-04-22T12:11:01;3.40;;;2.80;;
64037;SDS011;54641;50.168;8.492;2023-04-22T12:13:39;5.50;;;3.00;;
64037;SDS011;54641;50.168;8.492;2023-04-22T12:16:16;3.10;;;2.50;;
64037;SDS011;54641;50.168;8.492;2023-04-22T12:18:51;3.70;;;2.80;;
64037;SDS011;54641;50.168;8.492;2023-04-22T12:21:26;3.60;;;2.90;;
64037;SDS011;54641;50.168;8.492;2023-04-22T12:24:07;4.40;;;3.00;;
64037;SDS011;54641;50.168;8.492;2023-04-22T12:26:44;4.20;;;2.90;;
64037;SDS011;54641;50.168;8.492;2023-04-22T12:29:24;6.30;;;3.40;;
64037;SDS011;54641;50.168;8.492;2023-04-22T12:32:00;6.00;;;2.70;;
64037;SDS011;54641;50.168;8.492;2023-04-22T12:34:35;5.50;;;2.80;;
64037;SDS011;54641;50.168;8.492;2023-04-22T12:37:11;4.20;;;2.60;;
64037;SDS011;54641;50.168;8.492;2023-04-22T12:39:47;3.80;;;2.70;;
64037;SDS011;54641;50.168;8.492;2023-04-22T12:42:22;3.80;;;2.30;;
64037;SDS011;54641;50.168;8.492;2023-04-22T12:45:05;3.20;;;2.80;;
64037;SDS011;54641;50.168;8.492;2023-04-22T12:47:41;4.20;;;3.20;;
64037;SDS011;54641;50.168;8.492;2023-04-22T12:50:23;5.60;;;3.00;;
64037;SDS011;54641;50.168;8.492;2023-04-22T12:53:00;3.80;;;2.90;;
64037;SDS011;54641;50.168;8.492;2023-04-22T12:55:38;4.10;;;3.00;;
64037;SDS011;54641;50.168;8.492;2023-04-22T12:58:20;5.80;;;3.50;;
64037;SDS011;54641;50.168;8.492;2023-04-22T13:08:42;5.00;;;3.60;;
64037;SDS011;54641;50.168;8.492;2023-04-22T13:11:18;5.00;;;3.30;;
64037;SDS011;54641;50.168;8.492;2023-04-22T13:16:41;6.80;;;3.50;;
64037;SDS011;54641;50.168;8.492;2023-04-22T13:19:39;5.80;;;3.40;;
64037;SDS011;54641;50.168;8.492;2023-04-22T13:22:16;4.30;;;3.60;;
64037;SDS011;54641;50.168;8.492;2023-04-22T13:25:45;5.80;;;3.40;;
64037;SDS011;54641;50.168;8.492;2023-04-22T13:28:37;6.80;;;3.40;;
64037;SDS011;54641;50.168;8.492;2023-04-22T13:31:24;4.50;;;3.00;;
64037;SDS011;54641;50.168;8.492;2023-04-22T13:34:03;4.90;;;3.20;;
64037;SDS011;54641;50.168;8.492;2023-04-22T13:36:38;5.80;;;3.10;;
64037;SDS011;54641;50.168;8.492;2023-04-22T13:39:15;4.60;;;3.10;;
64037;SDS011;54641;50.168;8.492;2023-04-22T13:41:52;4.30;;;2.70;;
64037;SDS011;54641;50.168;8.492;2023-04-22T13:44:27;5.00;;;3.10;;
64037;SDS011;54641;50.168;8.492;2023-04-22T13:47:03;6.30;;;3.50;;
64037;SDS011;54641;50.168;8.492;2023-04-22T13:52:08;5.30;;;3.30;;
64037;SDS011;54641;50.168;8.492;2023-04-22T13:54:42;5.00;;;3.70;;
64037;SDS011;54641;50.168;8.492;2023-04-22T13:57:20;5.50;;;3.00;;
64037;SDS011;54641;50.168;8.492;2023-04-22T13:59:55;3.60;;;2.30;;
64037;SDS011;54641;50.168;8.492;2023-04-22T14:02:52;5.20;;;2.90;;
64037;SDS011;54641;50.168;8.492;2023-04-22T14:05:26;6.20;;;2.70;;
64037;SDS011;54641;50.168;8.492;2023-04-22T14:08:01;3.20;;;2.10;;
64037;SDS011;54641;50.168;8.492;2023-04-22T14:10:36;4.60;;;2.50;;
64037;SDS011;54641;50.168;8.492;2023-04-22T14:13:11;3.50;;;2.60;;
64037;SDS011;54641;50.168;8.492;2023-04-22T14:15:48;4.30;;;2.30;;
64037;SDS011;54641;50.168;8.492;2023-04-22T14:18:22;4.90;;;2.70;;
64037;SDS011;54641;50.168;8.492;2023-04-22T14:20:55;3.50;;;2.30;;
64037;SDS011;54641;50.168;8.492;2023-04-22T14:23:29;5.80;;;2.70;;
64037;SDS011;54641;50.168;8.492;2023-04-22T14:26:03;4.80;;;2.20;;
64037;SDS011;54641;50.168;8.492;2023-04-22T14:28:41;5.90;;;2.30;;
64037;SDS011;54641;50.168;8.492;2023-04-22T14:31:14;5.30;;;2.50;;
64037;SDS011;54641;50.168;8.492;2023-04-22T14:33:48;4.60;;;2.80;;
64037;SDS011;54641;50.168;8.492;2023-04-22T14:36:22;4.70;;;2.80;;
64037;SDS011;54641;50.168;8.492;2023-04-22T14:41:47;6.50;;;2.40;;
64037;SDS011;54641;50.168;8.492;2023-04-22T14:44:26;5.70;;;2.50;;
64037;SDS011;54641;50.168;8.492;2023-04-22T14:47:02;4.70;;;2.50;;
64037;SDS011;54641;50.168;8.492;2023-04-22T14:49:45;3.30;;;1.80;;
64037;SDS011;54641;50.168;8.492;2023-04-22T14:52:33;4.50;;;2.40;;
64037;SDS011;54641;50.168;8.492;2023-04-22T14:55:21;4.70;;;2.70;;
64037;SDS011;54641;50.168;8.492;2023-04-22T14:58:07;5.20;;;2.80;;
64037;SDS011;54641;50.168;8.492;2023-04-22T15:00:43;5.00;;;2.60;;
64037;SDS011;54641;50.168;8.492;2023-04-22T15:03:24;4.00;;;2.60;;
64037;SDS011;54641;50.168;8.492;2023-04-22T15:06:08;3.20;;;2.60;;
64037;SDS011;54641;50.168;8.492;2023-04-22T15:08:42;4.20;;;2.60;;
64037;SDS011;54641;50.168;8.492;2023-04-22T15:11:18;5.90;;;2.90;;
64037;SDS011;54641;50.168;8.492;2023-04-22T15:13:59;6.60;;;3.00;;
64037;SDS011;54641;50.168;8.492;2023-04-22T15:16:34;3.50;;;2.50;;
64037;SDS011;54641;50.168;8.492;2023-04-22T15:19:09;5.50;;;3.30;;
64037;SDS011;54641;50.168;8.492;2023-04-22T15:21:45;5.50;;;3.20;;
64037;SDS011;54641;50.168;8.492;2023-04-22T15:24:29;5.50;;;2.80;;
64037;SDS011;54641;50.168;8.492;2023-04-22T15:27:07;4.70;;;2.50;;
64037;SDS011;54641;50.168;8.492;2023-04-22T15:29:49;3.20;;;2.20;;
64037;SDS011;54641;50.168;8.492;2023-04-22T15:32:25;3.40;;;2.40;;
64037;SDS011;54641;50.168;8.492;2023-04-22T15:35:03;5.20;;;3.10;;
64037;SDS011;54641;50.168;8.492;2023-04-22T15:37:42;3.90;;;2.40;;
64037;SDS011;54641;50.168;8.492;2023-04-22T15:40:18;6.90;;;2.80;;
64037;SDS011;54641;50.168;8.492;2023-04-22T15:42:57;4.90;;;2.60;;
64037;SDS011;54641;50.168;8.492;2023-04-22T15:45:31;5.10;;;3.00;;
64037;SDS011;54641;50.168;8.492;2023-04-22T15:48:16;4.70;;;2.80;;
64037;SDS011;54641;50.168;8.492;2023-04-22T15:50:56;3.90;;;2.90;;
64037;SDS011;54641;50.168;8.492;2023-04-22T15:53:42;6.10;;;2.90;;
64037;SDS011;54641;50.168;8.492;2023-04-22T15:56:16;4.40;;;2.40;;
64037;SDS011;54641;50.168;8.492;2023-04-22T15:59:05;4.20;;;2.80;;
64037;SDS011;54641;50.168;8.492;2023-04-22T16:01:41;4.90;;;2.60;;
64037;SDS011;54641;50.168;8.492;2023-04-22T16:04:18;5.20;;;2.90;;
64037;SDS011;54641;50.168;8.492;2023-04-22T16:06:56;5.20;;;2.80;;
64037;SDS011;54641;50.168;8.492;2023-04-22T16:09:29;3.70;;;2.70;;
64037;SDS011;54641;50.168;8.492;2023-04-22T16:12:05;4.20;;;3.00;;
64037;SDS011;54641;50.168;8.492;2023-04-22T16:14:40;4.90;;;2.90;;
64037;SDS011;54641;50.168;8.492;2023-04-22T16:17:23;4.60;;;2.90;;
64037;SDS011;54641;50.168;8.492;2023-04-22T16:20:00;7.00;;;3.20;;
64037;SDS011;54641;50.168;8.492;2023-04-22T16:22:39;5.80;;;3.50;;
64037;SDS011;54641;50.168;8.492;2023-04-22T16:25:18;4.40;;;3.00;;
64037;SDS011;54641;50.168;8.492;2023-04-22T16:27:52;5.70;;;2.90;;
64037;SDS011;54641;50.168;8.492;2023-04-22T16:30:29;5.70;;;3.20;;
64037;SDS011;54641;50.168;8.492;2023-04-22T16:33:13;6.80;;;3.40;;